• Join FlightAware (Why Join?)
  • Login
  • US Flag 
07:30AM EDT


 

Airport Tracker/Info


-or-


 

Live Flight TrackerFlight Track Log ✈ SKP76 ✈ 02-May-2014 ✈ YBCS / CNS - YNPE / ABM

Flight Track Log - Related Links

Times and Time Zones

All times are in EDT time to prevent confusion due to time zone crossing. See the SKP76 flight status page for this flight to view local times or setup timezone preferences in your user account.

Time Position Orientation Groundspeed Altitude Reporting Facility
EDT Latitude Longitude Course Direction KTS MPH feet Rate Location/Type
11:50PM -16.5688 145.5784 332° Northwest  Level FlightAware Approximate
11:51PM -16.5160 145.5490 332° Northwest  Level FlightAware Approximate
11:52PM -16.4632 145.5196 332° Northwest  Level FlightAware Approximate
11:52PM -16.4922 145.5392 144° Southeast 22,000  Level Aus ATC (Calculated)
11:53PM -16.4103 145.4903 332° Northwest  Level FlightAware Approximate
11:54PM -16.4279 145.5029 332° Northwest  Level FlightAware Approximate
11:55PM -16.3757 145.4734 332° Northwest  Level FlightAware Approximate
11:56PM -16.3235 145.4439 332° Northwest  Level FlightAware Approximate
11:56PM -16.7429 145.7302 332° Northwest 154 177 4,000  Level Aus ATC (RADAR)
11:59PM -16.5487 145.6426 337° Northwest 181 208 8,000 960 Climbing Aus ATC (RADAR)
12:03AM -16.3246 145.5061 330° Northwest 203 234 11,200 600 Climbing Aus ATC (RADAR)
12:08AM -16.1023 145.3723 330° Northwest 200 230 13,800 300 Climbing Aus ATC (RADAR)
12:14AM -15.9882 145.3034 330° Northwest 206 237 14,800 360 Climbing Aus ATC (RADAR)
12:22AM -15.5013 145.0112 330° Northwest 187 215 19,100 420 Climbing Aus ATC (RADAR)
12:23AM -15.5294 145.0280 330° Northwest  Level FlightAware Approximate
12:25AM -15.3861 144.9426 330° Northwest 187 215 19,900  Level Aus ATC (RADAR)
12:30AM -15.0069 144.7170 330° Northwest 222 255 19,900  Level Aus ATC (RADAR)
12:32AM -14.7963 144.5918 330° Northwest 215 247 19,900  Level Aus ATC (RADAR)
12:38AM -14.6303 144.4945 330° Northwest 216 249 19,900  Level Aus ATC (RADAR)
12:44AM -14.3213 144.3250 332° Northwest 220 253 19,900  Level Aus ATC (RADAR)
12:44AM -14.2349 144.2788 333° Northwest 221 254 19,900  Level Aus ATC (RADAR)
12:46AM -14.1676 144.2413 332° Northwest  Level FlightAware Approximate
12:50AM -13.7612 144.0155 152° Southeast 20,000  Level Aus ATC (Calculated)
12:53AM -13.7952 144.0344 332° Northwest  Level FlightAware Approximate
12:54AM -13.7420 144.0049 332° Northwest  Level FlightAware Approximate
12:55AM -13.6887 143.9754 332° Northwest  Level FlightAware Approximate
12:56AM -13.4906 143.8658 332° Northwest  Level FlightAware Approximate
12:57AM -13.4374 143.8364 332° Northwest  Level FlightAware Approximate
12:58AM -13.3842 143.8069 332° Northwest  Level FlightAware Approximate
12:59AM -13.3309 143.7776 332° Northwest  Level FlightAware Approximate
01:00AM -13.2777 143.7482 332° Northwest  Level FlightAware Approximate
01:00AM -13.0441 143.6194 152° Southeast 20,000  Level Aus ATC (Calculated)
01:01AM -13.2244 143.7188 332° Northwest  Level FlightAware Approximate
01:02AM -13.1712 143.6894 332° Northwest  Level FlightAware Approximate
01:03AM -13.1179 143.6601 332° Northwest  Level FlightAware Approximate
01:04AM -13.0647 143.6308 332° Northwest  Level FlightAware Approximate
01:05AM -12.7884 143.4788 332° Northwest  Level FlightAware Approximate
01:05AM -12.7174 143.4370 147° Southeast  Level Aus ATC (Calculated)
01:06AM -12.7354 143.4491 331° Northwest  Level Estimated
01:07AM -12.6823 143.4194 331° Northwest  Level FlightAware Approximate
01:08AM -12.5678 143.3536 331° Northwest  Level FlightAware Approximate
01:08AM -12.5019 143.3170 152° Southeast  Level Aus ATC (Calculated)
01:09AM -12.5147 143.3241 331° Northwest  Level FlightAware Approximate
01:10AM -12.4616 143.2945 331° Northwest  Level FlightAware Approximate
01:11AM -12.3922 143.2559 331° Northwest  Level FlightAware Approximate
01:12AM -12.3390 143.2264 331° Northwest  Level FlightAware Approximate
01:13AM -12.2859 143.1969 332° Northwest  Level FlightAware Approximate
01:14AM -12.2328 143.1674 332° Northwest  Level FlightAware Approximate
01:15AM -12.1797 143.1379 332° Northwest  Level FlightAware Approximate
01:16AM -12.1266 143.1084 332° Northwest  Level FlightAware Approximate
01:17AM -12.0734 143.0790 332° Northwest  Level FlightAware Approximate
01:18AM -12.0203 143.0495 332° Northwest  Level FlightAware Approximate
01:19AM -11.9672 143.0201 332° Northwest  Level FlightAware Approximate
01:20AM -11.9140 142.9906 332° Northwest  Level FlightAware Approximate
01:21AM -11.8609 142.9612 332° Northwest  Level FlightAware Approximate
01:22AM -11.8077 142.9318 332° Northwest  Level FlightAware Approximate
01:23AM -11.7546 142.9024 332° Northwest  Level FlightAware Approximate
01:23AM -11.6298 142.8335 152° Southeast  Level Aus ATC (Calculated)
01:24AM -11.7015 142.8731 332° Northwest  Level FlightAware Approximate
01:25AM -11.5500 142.7894 332° Northwest  Level FlightAware Approximate
01:25AM -11.5449 142.7866 332° Northwest  Level Aus ATC (Calculated)
01:26AM -11.4969 142.7601 332° Northwest  Level FlightAware Approximate
01:27AM -11.4437 142.7308 332° Northwest  Level FlightAware Approximate
01:28AM -11.3905 142.7014 332° Northwest  Level FlightAware Approximate
01:29AM -11.3374 142.6721 332° Northwest  Level FlightAware Approximate
01:30AM -11.2842 142.6428 332° Northwest  Level FlightAware Approximate
01:31AM -11.2310 142.6136 332° Northwest  Level FlightAware Approximate
01:32AM -11.1778 142.5843 332° Northwest  Level FlightAware Approximate
01:33AM -11.1247 142.5550 332° Northwest  Level FlightAware Approximate
01:34AM -11.0715 142.5258 332° Northwest  Level FlightAware Approximate
01:35AM -11.0183 142.4965 332° Northwest  Level FlightAware Approximate
01:36AM -10.9658 142.4660 331° Northwest  Level Estimated
01:37AM -10.9444 142.4535 330° Northwest  Level Estimated
01:38AM -10.9444 142.4535 North  Level Estimated
01:39AM -10.9508 142.4595 331° Northwest  Level FlightAware Approximate
01:40AM -10.9444 142.4535 318° Northwest  Level Estimated
01:41AM -10.9444 142.4535 North  Level Estimated
01:42AM -10.9444 142.4535 North  Level Estimated
01:43AM -10.9444 142.4535 North  Level Estimated
01:44AM -10.9444 142.4535 North  Level Estimated
01:45AM -10.9444 142.4535 North  Level Estimated
01:46AM -10.9444 142.4535 North  Level Estimated
01:47AM -10.9444 142.4535 North  Level Estimated
01:48AM -10.9444 142.4535 North  Level Estimated
01:49AM -10.9444 142.4535 North  Level Estimated
01:50AM -10.9444 142.4535 North  Level Estimated